Custer, WA (98240)

4:34 AM PDT on July 24, 2016 (GMT -0700)
Dakota Creek Farm | | Change Station

Elev 141 ft 48.97 °N, 122.63 °W | Updated 12 seconds ago

Clear
Clear
50.8 °F
Feels Like 50.8 °F
N
0.0
Wind Variable Wind from SW
Gusts 0.0 mph

Today
High -- | Low -- °F
--% Chance of Precip.
Yesterday
High -- | Low -- °F
Precip. -- in
Pressure 30.17 in
Visibility 10.0 miles
Clouds Clear
Dew Point 49 °F
Humidity 94%
Rainfall 0.00 in
Snow Depth Not available.
5:34 AM 8:59 PM
Waning Gibbous, 77% visible
METAR KBLI 241053Z AUTO 00000KT 10SM CLR 12/11 A3016 RMK AO2 SLP217 T01170111
Pressure 30.17 in
Visibility 10.0 miles
Clouds Clear
Dew Point 49 °F
Humidity 94%
Rainfall 0.00 in
Snow Depth Not available.
5:34 AM 8:59 PM
Waning Gibbous, 77% visible
METAR KBLI 241053Z AUTO 00000KT 10SM CLR 12/11 A3016 RMK AO2 SLP217 T01170111

10-Day Weather Forecast

Almanac

Astronomy

Jul. 24, 2016 Rise Set
Actual Time
Civil Twilight
Nautical Twilight
Astronomical Twilight
Moon
Length of Visible Light
Length of Day
Tomorrow will be .
, % of the Moon is Illuminated

Today's Extremes

State Highs State Lows

Community

WunderPhotos

Upload Photos

1,927,048 photos uploaded!

WunderBlog® & News

Nearby

Air Quality

  Air Quality AQ Index Pollutant
Not available.

Snow Depth

Station Depth Elevation

Earthquake Activity

City Distance Mag. Time & Date
Minimum magnitude displayed is 2.5.

Coastal Water Temperatures

Place Temperature

Stations

Nearby Weather Stations

Station Location Temp. Windchill Dew Point Humidity Wind Precip. Elev Updated Type
                   

Watches & Warnings

There are currently no watches in effect.